Time;durP1;ratioP1;P1;durP2;ratioP2;P2;SDS_P1;SDS_P2;PMS_P1;PMS_P2;Temp;Humidity;BMP_temperature;BMP_pressure;BME280_temperature;BME280_humidity;BME280_pressure;Samples;Min_cycle;Max_cycle;Signal;HPM_P1;HPM_P2
2022/05/12 00:01:15;;;;;;;5.53;5.00;;;24.00;1.00;;;;;;5100734;28;20228;-59
2022/05/12 00:03:41;;;;;;;5.43;4.83;;;24.00;1.00;;;;;;5101838;28;20258;-59
2022/05/12 00:08:32;;;;;;;5.00;4.53;;;24.00;1.00;;;;;;5095832;28;20817;-60
2022/05/12 00:10:57;;;;;;;4.13;3.77;;;24.10;1.00;;;;;;5103745;28;20540;-59
2022/05/12 00:13:23;;;;;;;5.47;4.73;;;24.00;1.00;;;;;;5097108;28;20177;-58
2022/05/12 00:15:48;;;;;;;12.30;5.10;;;23.90;1.00;;;;;;5104728;28;20197;-57
2022/05/12 00:18:14;;;;;;;4.50;4.10;;;23.90;1.00;;;;;;5103134;28;20178;-57
2022/05/12 00:20:41;;;;;;;8.20;5.33;;;24.00;1.00;;;;;;5106452;28;20186;-57
2022/05/12 00:23:12;;;;;;;5.20;4.80;;;23.90;1.00;;;;;;5104224;28;20190;-60
2022/05/12 00:25:38;;;;;;;7.00;4.83;;;23.90;1.00;;;;;;5097783;28;20491;-57
2022/05/12 00:28:05;;;;;;;4.77;4.37;;;24.00;1.00;;;;;;5100342;28;20489;-58
2022/05/12 00:30:31;;;;;;;4.47;3.90;;;24.10;1.00;;;;;;5099939;28;20467;-59
2022/05/12 00:32:57;;;;;;;5.03;4.43;;;24.10;1.00;;;;;;5098740;28;20534;-58
2022/05/12 00:35:22;;;;;;;4.70;4.10;;;24.10;1.00;;;;;;5105459;28;20950;-58
2022/05/12 00:37:48;;;;;;;4.83;4.00;;;24.00;1.00;;;;;;5097468;28;20201;-58
2022/05/12 00:40:15;;;;;;;3.97;3.67;;;24.10;1.00;;;;;;5106216;28;20312;-59
2022/05/12 00:43:03;;;;;;;4.60;4.20;;;24.10;1.00;;;;;;5106631;28;20281;-59
2022/05/12 00:45:30;;;;;;;5.63;4.30;;;24.10;1.00;;;;;;5094533;28;20487;-58
2022/05/12 00:47:57;;;;;;;7.97;3.80;;;24.10;1.00;;;;;;5105773;28;20981;-59
2022/05/12 00:50:29;;;;;;;5.13;4.23;;;24.10;1.00;;;;;;5109856;28;20465;-58
2022/05/12 00:52:56;;;;;;;4.27;3.87;;;24.20;1.00;;;;;;5101438;28;20451;-59
2022/05/12 00:55:30;;;;;;;10.60;4.20;;;24.20;1.00;;;;;;5105379;28;20451;-57
2022/05/12 00:57:57;;;;;;;6.57;3.80;;;24.10;1.00;;;;;;5102134;28;20478;-58
2022/05/12 01:00:23;;;;;;;5.07;3.60;;;24.00;1.00;;;;;;5108338;28;20446;-59
2022/05/12 01:02:53;;;;;;;4.70;4.30;;;24.00;1.00;;;;;;5099852;28;20845;-58
2022/05/12 01:05:19;;;;;;;4.00;3.70;;;24.10;1.00;;;;;;5104368;28;20197;-59
2022/05/12 01:07:45;;;;;;;4.73;4.23;;;24.10;1.00;;;;;;5105382;28;20547;-58
2022/05/12 01:10:11;;;;;;;6.60;3.93;;;23.90;1.00;;;;;;5104096;28;20590;-58
2022/05/12 01:12:39;;;;;;;3.70;3.40;;;24.10;1.00;;;;;;5084583;28;20198;-58
2022/05/12 01:15:06;;;;;;;7.30;4.07;;;24.10;1.00;;;;;;5105192;28;20447;-58
2022/05/12 01:17:32;;;;;;;4.93;3.57;;;24.10;1.00;;;;;;5100625;28;20458;-58
2022/05/12 01:19:58;;;;;;;3.90;3.60;;;24.00;1.00;;;;;;5103376;28;20843;-58
2022/05/12 01:22:50;;;;;;;7.73;3.73;;;24.00;1.00;;;;;;5100975;28;20285;-57
2022/05/12 01:25:20;;;;;;;5.60;3.60;;;24.00;1.00;;;;;;5104667;28;20314;-59
2022/05/12 01:27:45;;;;;;;4.70;3.47;;;23.90;1.00;;;;;;5099692;28;20516;-57
2022/05/12 01:30:15;;;;;;;5.20;3.60;;;24.10;1.00;;;;;;5103943;28;20947;-59
2022/05/12 01:32:43;;;;;;;3.93;3.63;;;24.00;1.00;;;;;;5103410;28;20605;-59
2022/05/12 01:35:10;;;;;;;6.07;3.70;;;23.90;1.00;;;;;;5098578;28;20437;-58
2022/05/12 01:37:44;;;;;;;6.17;4.33;;;23.90;1.00;;;;;;5103245;28;20470;-57
2022/05/12 01:40:14;;;;;;;8.23;3.80;;;23.80;1.00;;;;;;5101702;28;20984;-58
2022/05/12 01:42:40;;;;;;;4.60;3.43;;;23.80;1.00;;;;;;5097376;28;20488;-58
2022/05/12 01:45:07;;;;;;;3.67;3.33;;;23.80;1.00;;;;;;5100547;28;20478;-58
2022/05/12 01:47:34;;;;;;;3.97;3.63;;;23.80;1.00;;;;;;5104758;28;20198;-59
2022/05/12 01:50:00;;;;;;;4.03;3.30;;;23.80;1.00;;;;;;5104729;28;21983;-58
2022/05/12 01:52:25;;;;;;;3.87;3.50;;;23.80;1.00;;;;;;5106379;28;20444;-58
2022/05/12 01:54:51;;;;;;;4.97;3.70;;;23.70;1.00;;;;;;5105145;28;20189;-58
2022/05/12 01:57:17;;;;;;;3.60;3.30;;;23.70;1.00;;;;;;5098956;28;20237;-59
2022/05/12 01:59:42;;;;;;;5.03;3.43;;;23.70;1.00;;;;;;5109146;28;20186;-59
2022/05/12 02:02:08;;;;;;;4.50;3.57;;;23.70;1.00;;;;;;5106243;28;20189;-58
2022/05/12 02:04:33;;;;;;;5.60;3.50;;;23.60;1.00;;;;;;5103227;28;20261;-59
2022/05/12 02:06:59;;;;;;;5.57;3.60;;;23.60;1.00;;;;;;5102347;28;20205;-58
2022/05/12 02:09:24;;;;;;;3.53;3.23;;;23.60;1.00;;;;;;5106028;28;20213;-57
2022/05/12 02:11:50;;;;;;;3.83;3.50;;;23.60;1.00;;;;;;5095047;28;20663;-57
2022/05/12 02:14:16;;;;;;;3.50;3.20;;;23.60;1.00;;;;;;5104273;28;20179;-58
2022/05/12 02:16:41;;;;;;;4.10;3.53;;;23.50;1.00;;;;;;5100856;28;20631;-58
2022/05/12 02:19:08;;;;;;;4.30;3.90;;;23.40;1.00;;;;;;5099580;28;20189;-58
2022/05/12 02:21:34;;;;;;;3.93;3.47;;;23.40;1.00;;;;;;5098910;28;20238;-57
2022/05/12 02:24:00;;;;;;;3.63;3.33;;;23.50;1.00;;;;;;5106673;28;20535;-58
2022/05/12 02:26:27;;;;;;;3.63;3.33;;;23.50;1.00;;;;;;5106100;28;20559;-58
2022/05/12 02:28:52;;;;;;;3.83;3.40;;;23.60;1.00;;;;;;5104029;28;20203;-58
2022/05/12 02:31:18;;;;;;;4.47;3.27;;;23.60;1.00;;;;;;5099156;28;20446;-57
2022/05/12 02:33:43;;;;;;;3.77;3.43;;;23.70;1.00;;;;;;5103917;28;20194;-58
2022/05/12 02:36:09;;;;;;;4.33;3.53;;;23.60;1.00;;;;;;5100340;28;20201;-58
2022/05/12 02:38:34;;;;;;;4.73;3.37;;;23.70;1.00;;;;;;5100359;28;20225;-58
2022/05/12 02:41:00;;;;;;;4.77;3.77;;;23.70;1.00;;;;;;5100492;28;20189;-59
2022/05/12 02:43:25;;;;;;;5.20;3.33;;;23.60;1.00;;;;;;5101917;28;20186;-58
2022/05/12 02:45:57;;;;;;;4.10;3.67;;;23.60;1.00;;;;;;5099991;28;20243;-58
2022/05/12 02:48:26;;;;;;;4.67;3.50;;;23.60;1.00;;;;;;5104565;28;20178;-58
2022/05/12 02:50:52;;;;;;;4.10;3.80;;;23.60;1.00;;;;;;5104320;28;20467;-58
2022/05/12 02:53:18;;;;;;;5.40;3.43;;;23.50;1.00;;;;;;5100630;28;20453;-58
2022/05/12 02:55:44;;;;;;;4.43;3.63;;;23.50;1.00;;;;;;5105387;28;20493;-58
2022/05/12 02:58:11;;;;;;;8.20;3.87;;;23.40;1.00;;;;;;5101398;28;21411;-58
2022/05/12 03:00:37;;;;;;;3.57;3.27;;;23.30;1.00;;;;;;5101953;28;20186;-57
2022/05/12 03:03:05;;;;;;;3.70;3.40;;;23.30;1.00;;;;;;5096376;28;21110;-58
2022/05/12 03:05:31;;;;;;;3.83;3.53;;;23.20;1.00;;;;;;5104436;28;20467;-57
2022/05/12 03:07:57;;;;;;;3.80;3.40;;;23.20;1.00;;;;;;5100867;28;20494;-58
2022/05/12 03:10:23;;;;;;;4.20;3.80;;;23.20;1.00;;;;;;5100851;28;20478;-58
2022/05/12 03:12:49;;;;;;;3.50;3.10;;;23.20;1.00;;;;;;5103720;28;20440;-58
2022/05/12 03:15:15;;;;;;;4.13;3.30;;;23.10;1.00;;;;;;5098991;28;20196;-58
2022/05/12 03:17:43;;;;;;;4.53;3.60;;;23.10;1.00;;;;;;5099399;28;20437;-58
2022/05/12 03:20:10;;;;;;;6.80;4.00;;;23.10;1.00;;;;;;5094958;28;20191;-58
2022/05/12 03:22:36;;;;;;;5.03;3.17;;;23.10;1.00;;;;;;5100736;28;21027;-58
2022/05/12 03:25:03;;;;;;;3.83;3.40;;;23.10;1.00;;;;;;5098977;28;20440;-58
2022/05/12 03:27:30;;;;;;;5.77;4.03;;;23.10;1.00;;;;;;5102764;28;20534;-59
2022/05/12 03:29:55;;;;;;;4.77;3.43;;;23.10;1.00;;;;;;5101946;28;20471;-59
2022/05/12 03:32:21;;;;;;;4.10;3.80;;;23.10;1.00;;;;;;5105517;28;20467;-58
2022/05/12 03:34:47;;;;;;;4.50;4.10;;;23.00;1.00;;;;;;5102949;28;20181;-59
2022/05/12 03:37:13;;;;;;;5.80;3.67;;;23.00;1.00;;;;;;5103894;28;20188;-58
2022/05/12 03:39:39;;;;;;;3.97;3.50;;;22.90;1.00;;;;;;5104522;28;20198;-58
2022/05/12 03:42:06;;;;;;;4.53;3.20;;;22.90;1.00;;;;;;5097344;28;20447;-58
2022/05/12 03:44:49;;;;;;;4.07;3.60;;;22.90;1.00;;;;;;5104849;28;20233;-58
2022/05/12 03:47:19;;;;;;;3.80;3.50;;;22.80;1.00;;;;;;5103086;28;20542;-58
2022/05/12 03:49:46;;;;;;;6.83;4.00;;;22.80;1.00;;;;;;5103921;28;20806;-58
2022/05/12 03:52:12;;;;;;;3.93;3.43;;;22.80;1.00;;;;;;5080253;28;20472;-58
2022/05/12 03:54:38;;;;;;;4.43;4.03;;;22.80;1.00;;;;;;5104507;28;20449;-58
2022/05/12 03:57:04;;;;;;;4.03;3.63;;;22.80;1.00;;;;;;5098300;28;20441;-59
2022/05/12 03:59:30;;;;;;;4.23;3.37;;;22.80;1.00;;;;;;5104439;28;20200;-58
2022/05/12 04:01:55;;;;;;;5.63;3.90;;;22.80;1.00;;;;;;5107540;28;20447;-58
2022/05/12 04:04:21;;;;;;;4.03;3.00;;;22.70;1.00;;;;;;5104153;28;20276;-57
2022/05/12 04:06:46;;;;;;;4.00;3.40;;;22.80;1.00;;;;;;5110091;28;20174;-57
2022/05/12 04:09:12;;;;;;;3.80;3.40;;;22.80;1.00;;;;;;5106700;28;20663;-60
2022/05/12 04:11:38;;;;;;;4.50;3.40;;;22.70;1.00;;;;;;5108124;28;20190;-59
2022/05/12 04:14:04;;;;;;;3.90;3.60;;;22.70;1.00;;;;;;5107615;28;20193;-59
2022/05/12 04:16:31;;;;;;;5.57;3.20;;;22.80;1.00;;;;;;5108616;28;20448;-60
2022/05/12 04:18:57;;;;;;;5.47;3.47;;;22.80;1.00;;;;;;5103502;28;20643;-59
2022/05/12 04:21:23;;;;;;;4.40;3.30;;;22.90;1.00;;;;;;5106658;28;20451;-58
2022/05/12 04:23:48;;;;;;;4.80;3.10;;;22.80;1.00;;;;;;5108059;28;20196;-59
2022/05/12 04:26:14;;;;;;;4.50;3.10;;;22.70;1.00;;;;;;5107305;28;20342;-59
2022/05/12 04:28:39;;;;;;;3.87;2.90;;;22.60;1.00;;;;;;5106322;28;20186;-59
2022/05/12 04:31:08;;;;;;;2.90;2.60;;;22.70;1.00;;;;;;5109084;28;20273;-59
2022/05/12 04:36:17;;;;;;;6.80;3.60;;;22.60;1.00;;;;;;5103957;28;20450;-59
2022/05/12 04:38:43;;;;;;;5.60;3.63;;;22.50;1.00;;;;;;5105554;28;20546;-58
2022/05/12 04:41:09;;;;;;;4.97;3.53;;;22.50;1.00;;;;;;5107826;28;20597;-59
2022/05/12 04:43:35;;;;;;;4.47;3.73;;;22.60;1.00;;;;;;5102279;28;20194;-59
2022/05/12 04:46:01;;;;;;;9.33;4.07;;;22.20;1.00;;;;;;5101364;28;20431;-58
2022/05/12 04:48:29;;;;;;;8.87;3.60;;;22.30;1.00;;;;;;5109853;28;20997;-56
2022/05/12 04:50:55;;;;;;;6.10;3.53;;;22.10;1.00;;;;;;5103849;28;20281;-56
2022/05/12 04:53:21;;;;;;;7.80;3.47;;;21.80;1.00;;;;;;5096243;28;20597;-56
2022/05/12 04:55:47;;;;;;;4.40;3.73;;;21.90;1.00;;;;;;5096539;28;20440;-56
2022/05/12 04:58:13;;;;;;;5.73;3.70;;;21.90;1.00;;;;;;5103277;28;20444;-56
2022/05/12 05:00:41;;;;;;;4.67;3.77;;;21.80;1.00;;;;;;5098764;28;20199;-57
2022/05/12 05:03:08;;;;;;;3.90;3.60;;;21.80;1.00;;;;;;5110437;28;20439;-56
2022/05/12 05:05:35;;;;;;;4.77;3.93;;;21.90;1.00;;;;;;5101710;28;20452;-56
2022/05/12 05:08:01;;;;;;;6.60;4.20;;;21.90;1.00;;;;;;5103203;28;20444;-56
2022/05/12 05:10:26;;;;;;;5.77;3.50;;;21.60;1.00;;;;;;5106399;28;20459;-56
2022/05/12 05:12:53;;;;;;;6.40;3.87;;;21.60;1.00;;;;;;5099709;28;20594;-55
2022/05/12 05:15:20;;;;;;;6.37;3.67;;;21.40;1.00;;;;;;5104205;28;20186;-56
2022/05/12 05:17:46;;;;;;;4.33;3.67;;;21.30;1.00;;;;;;5108241;28;20860;-56
2022/05/12 05:20:16;;;;;;;6.53;3.47;;;21.20;1.00;;;;;;5101266;28;20451;-56
2022/05/12 05:22:43;;;;;;;7.30;3.73;;;21.30;1.00;;;;;;5101852;28;20792;-57
2022/05/12 05:25:08;;;;;;;6.60;3.63;;;21.20;1.00;;;;;;5105836;28;20534;-57
2022/05/12 05:27:35;;;;;;;6.67;3.43;;;21.30;1.00;;;;;;5103064;28;20898;-56
2022/05/12 05:30:01;;;;;;;6.57;3.50;;;21.40;1.00;;;;;;5101596;28;20201;-56
2022/05/12 05:32:27;;;;;;;3.60;2.90;;;21.40;1.00;;;;;;5102300;28;20525;-57
2022/05/12 05:34:53;;;;;;;6.20;3.53;;;21.30;1.00;;;;;;5098441;28;20953;-57
2022/05/12 05:37:18;;;;;;;4.20;3.10;;;20.80;1.00;;;;;;5101806;28;20251;-55
2022/05/12 05:39:44;;;;;;;5.20;3.50;;;20.70;1.00;;;;;;5109286;28;20185;-57
2022/05/12 05:42:13;;;;;;;4.27;3.60;;;20.70;1.00;;;;;;5109410;28;20287;-56
2022/05/12 05:44:38;;;;;;;15.80;6.50;;;20.70;1.00;;;;;;5086976;28;20222;-57
2022/05/12 05:47:04;;;;;;;6.60;3.93;;;20.80;1.00;;;;;;5073737;28;20802;-55
2022/05/12 05:49:30;;;;;;;7.07;3.20;;;20.90;1.00;;;;;;5086327;28;20249;-56
2022/05/12 05:54:42;;;;;;;3.83;2.80;;;20.90;1.00;;;;;;5088430;28;20194;-57
2022/05/12 05:57:08;;;;;;;5.17;3.53;;;21.10;1.00;;;;;;5081784;28;20451;-58
2022/05/12 05:59:33;;;;;;;6.13;3.13;;;21.30;1.00;;;;;;5072575;28;20528;-58
2022/05/12 06:01:59;;;;;;;4.37;2.93;;;21.40;1.00;;;;;;5082824;28;20249;-57
2022/05/12 06:04:25;;;;;;;8.13;3.33;;;21.40;1.00;;;;;;5087214;28;20199;-57
2022/05/12 06:06:50;;;;;;;5.70;2.73;;;21.60;1.00;;;;;;5082942;28;20583;-58
2022/05/12 06:09:16;;;;;;;3.63;2.80;;;21.60;1.00;;;;;;5080941;28;20233;-58
2022/05/12 06:11:44;;;;;;;4.73;3.27;;;21.50;1.00;;;;;;5075155;28;20609;-57
2022/05/12 06:14:10;;;;;;;6.37;3.40;;;;;;;;;;5076589;28;20472;-59
2022/05/12 06:16:35;;;;;;;5.43;3.73;;;21.00;1.00;;;;;;5083488;28;20502;-59
2022/05/12 06:19:02;;;;;;;6.33;2.90;;;20.90;1.00;;;;;;5076441;28;20456;-59
2022/05/12 06:21:28;;;;;;;7.57;3.30;;;20.80;1.00;;;;;;5077433;28;20187;-59
2022/05/12 06:23:54;;;;;;;5.90;2.83;;;20.60;1.00;;;;;;5078447;28;20428;-59
2022/05/12 06:26:20;;;;;;;5.03;3.10;;;20.80;1.00;;;;;;5087757;28;20187;-59
2022/05/12 06:28:47;;;;;;;5.40;3.03;;;20.50;1.00;;;;;;5088911;28;20603;-58
2022/05/12 06:31:24;;;;;;;2.90;2.63;;;20.50;1.00;;;;;;5089329;28;21025;-59
2022/05/12 06:33:50;;;;;;;10.30;3.43;;;20.50;1.00;;;;;;5087965;28;20513;-58
2022/05/12 06:36:15;;;;;;;4.30;3.10;;;20.40;1.00;;;;;;5077661;28;20483;-59
2022/05/12 06:38:41;;;;;;;9.80;3.27;;;20.40;1.00;;;;;;5078879;28;20429;-59
2022/05/12 06:43:32;;;;;;;3.83;2.67;;;20.20;1.00;;;;;;5078158;28;20206;-58
2022/05/12 06:45:58;;;;;;;4.20;2.40;;;20.30;1.00;;;;;;5090905;28;20323;-58
2022/05/12 06:48:24;;;;;;;5.53;2.57;;;20.10;1.00;;;;;;5094476;28;20239;-58
2022/05/12 06:50:50;;;;;;;6.83;2.73;;;20.40;1.00;;;;;;5090502;28;20260;-58
2022/05/12 06:53:16;;;;;;;7.37;2.70;;;20.40;1.00;;;;;;5090706;28;20468;-58
2022/05/12 06:55:41;;;;;;;2.67;1.77;;;20.40;1.00;;;;;;5101623;28;20566;-59
2022/05/12 06:58:10;;;;;;;3.20;1.77;;;20.20;1.00;;;;;;5096382;28;20445;-58
2022/05/12 07:00:36;;;;;;;5.27;1.60;;;20.20;1.00;;;;;;5090882;28;20194;-57
2022/05/12 07:03:01;;;;;;;5.20;1.50;;;20.00;1.00;;;;;;5090628;28;20751;-59
2022/05/12 07:05:27;;;;;;;9.17;1.53;;;20.00;1.00;;;;;;5092344;28;20633;-58
2022/05/12 07:07:54;;;;;;;2.70;1.20;;;20.00;1.00;;;;;;5099071;28;20182;-59
2022/05/12 07:10:24;;;;;;;3.63;1.50;;;20.00;1.00;;;;;;5096216;28;20469;-57
2022/05/12 07:12:50;;;;;;;3.20;1.53;;;20.10;1.00;;;;;;5111166;28;20487;-58
2022/05/12 07:15:16;;;;;;;5.03;1.53;;;20.40;1.00;;;;;;5110722;28;20447;-58
2022/05/12 07:17:45;;;;;;;3.53;1.60;;;20.50;1.00;;;;;;5110204;28;20444;-58
2022/05/12 07:28:30;;;;;;;5.43;1.77;;;20.80;1.00;;;;;;5110742;28;20474;-58
2022/05/12 07:31:09;;;;;;;3.47;1.97;;;20.50;1.00;;;;;;5110638;28;20467;-59
2022/05/12 07:33:43;;;;;;;4.13;1.60;;;20.30;1.00;;;;;;5110573;28;20751;-58
2022/05/12 07:36:14;;;;;;;5.00;1.67;;;20.30;1.00;;;;;;5106928;28;20544;-57
2022/05/12 07:38:40;;;;;;;10.00;2.70;;;20.00;1.00;;;;;;5092884;28;20440;-58
2022/05/12 07:41:12;;;;;;;6.10;2.30;;;20.10;1.00;;;;;;5090197;28;20443;-59
2022/05/12 07:43:39;;;;;;;2.67;1.30;;;20.50;1.00;;;;;;5090094;28;20174;-58
2022/05/12 07:46:08;;;;;;;3.83;1.37;;;20.50;1.00;;;;;;5090748;28;20507;-59
2022/05/12 07:48:35;;;;;;;6.50;1.63;;;20.70;1.00;;;;;;5092289;28;20448;-59
2022/05/12 07:51:01;;;;;;;4.20;1.60;;;21.00;1.00;;;;;;5089832;28;20483;-57
2022/05/12 07:53:27;;;;;;;4.43;1.23;;;21.30;1.00;;;;;;5090029;28;20436;-58
2022/05/12 07:55:53;;;;;;;5.40;1.50;;;21.50;1.00;;;;;;5089672;28;20978;-59
2022/05/12 07:58:18;;;;;;;1.37;1.27;;;21.50;1.00;;;;;;5078381;28;20494;-59
2022/05/12 08:00:44;;;;;;;3.93;1.10;;;21.30;1.00;;;;;;5110277;28;20512;-59
2022/05/12 08:03:11;;;;;;;5.53;1.67;;;21.30;1.00;;;;;;5099412;28;20247;-59
2022/05/12 08:05:36;;;;;;;3.03;1.90;;;21.60;1.00;;;;;;5093977;28;20447;-59
2022/05/12 08:08:07;;;;;;;1.97;0.90;;;21.80;1.00;;;;;;5089746;28;20448;-61
2022/05/12 08:10:34;;;;;;;6.17;1.50;;;21.80;1.00;;;;;;5089879;28;20544;-59
2022/05/12 08:13:00;;;;;;;2.70;1.37;;;22.00;1.00;;;;;;5096107;28;20532;-59
2022/05/12 08:15:26;;;;;;;2.13;1.40;;;22.00;1.00;;;;;;5089283;28;20454;-58
2022/05/12 08:17:52;;;;;;;4.03;1.17;;;22.00;1.00;;;;;;5089247;28;20527;-58
2022/05/12 08:20:18;;;;;;;3.03;1.37;;;22.30;1.00;;;;;;5090771;28;20256;-59
2022/05/12 08:22:43;;;;;;;5.30;1.50;;;22.20;1.00;;;;;;5089395;28;20436;-58
2022/05/12 08:25:10;;;;;;;5.73;1.70;;;22.20;1.00;;;;;;5089577;28;20629;-58
2022/05/12 08:27:36;;;;;;;3.67;1.30;;;22.20;1.00;;;;;;5089672;28;20210;-58
2022/05/12 08:30:06;;;;;;;3.03;1.27;;;22.10;1.00;;;;;;5089832;28;21026;-58
2022/05/12 08:32:31;;;;;;;6.50;1.40;;;21.90;1.00;;;;;;5092798;28;20460;-59
2022/05/12 08:34:57;;;;;;;1.33;1.00;;;21.90;1.00;;;;;;5092798;28;20906;-58
2022/05/12 08:37:23;;;;;;;10.20;1.50;;;21.90;1.00;;;;;;5092931;28;20190;-58
2022/05/12 08:39:49;;;;;;;1.50;1.40;;;21.70;1.00;;;;;;5093371;28;20560;-58
2022/05/12 08:42:19;;;;;;;8.07;2.00;;;21.60;1.00;;;;;;5092985;28;20645;-59
2022/05/12 08:44:45;;;;;;;4.37;1.23;;;21.90;1.00;;;;;;5098629;28;21005;-58
2022/05/12 08:47:15;;;;;;;2.87;1.50;;;21.90;1.00;;;;;;5112989;28;20470;-58
2022/05/12 08:49:50;;;;;;;2.07;1.30;;;22.10;1.00;;;;;;5113386;28;20253;-59
2022/05/12 08:52:29;;;;;;;5.67;1.60;;;22.10;1.00;;;;;;5113269;28;20463;-58
2022/05/12 08:55:10;;;;;;;5.60;1.53;;;21.50;1.00;;;;;;5113516;28;20434;-59
2022/05/12 08:57:46;;;;;;;1.90;1.17;;;21.70;1.00;;;;;;5112908;28;20859;-58
2022/05/12 09:00:15;;;;;;;2.80;1.30;;;21.70;1.00;;;;;;5113210;28;20431;-60
2022/05/12 09:03:07;;;;;;;8.77;1.60;;;22.00;1.00;;;;;;5108920;28;20435;-59
2022/05/12 09:05:44;;;;;;;13.63;1.90;;;22.30;1.00;;;;;;5109402;28;20841;-59
2022/05/12 09:08:46;;;;;;;1.53;1.20;;;22.70;1.00;;;;;;5092570;28;20527;-58
2022/05/12 09:11:27;;;;;;;3.60;1.80;;;22.20;1.00;;;;;;5108454;28;20965;-59
2022/05/12 09:13:54;;;;;;;5.03;2.00;;;22.20;1.00;;;;;;5107384;28;20478;-58
2022/05/12 09:16:29;;;;;;;5.30;1.37;;;22.10;1.00;;;;;;5092466;28;20433;-59
2022/05/12 09:18:55;;;;;;;3.93;1.37;;;22.40;1.00;;;;;;5092603;28;20443;-58
2022/05/12 09:21:24;;;;;;;2.37;1.73;;;22.30;1.00;;;;;;5092305;28;20429;-57
2022/05/12 09:23:50;;;;;;;3.00;1.40;;;22.00;1.00;;;;;;5092943;28;20453;-58
2022/05/12 09:26:39;;;;;;;1.83;1.27;;;22.00;1.00;;;;;;5092883;28;20958;-58
2022/05/12 09:29:13;;;;;;;3.53;1.60;;;22.20;1.00;;;;;;5111673;28;20498;-59
2022/05/12 09:31:40;;;;;;;3.53;1.73;;;22.50;1.00;;;;;;5112611;28;20525;-59
2022/05/12 09:34:29;;;;;;;2.87;0.97;;;22.40;1.00;;;;;;5112707;28;20443;-58
2022/05/12 09:36:55;;;;;;;4.60;1.37;;;22.40;1.00;;;;;;5112410;28;20520;-59
2022/05/12 09:39:31;;;;;;;2.17;1.23;;;22.20;1.00;;;;;;5112724;28;20979;-58
2022/05/12 09:41:57;;;;;;;2.80;1.20;;;22.30;1.00;;;;;;5112117;28;20538;-57
2022/05/12 09:44:26;;;;;;;2.90;1.27;;;22.60;1.00;;;;;;5096678;28;20567;-58
2022/05/12 09:47:17;;;;;;;2.60;1.10;;;22.50;1.00;;;;;;5091937;28;20443;-58
2022/05/12 09:49:45;;;;;;;2.43;1.00;;;23.20;1.00;;;;;;5098553;28;20464;-58
2022/05/12 09:52:31;;;;;;;4.20;1.27;;;23.20;1.00;;;;;;5112336;28;20432;-59
2022/05/12 09:55:12;;;;;;;2.87;1.37;;;23.20;1.00;;;;;;5108572;28;20445;-58
2022/05/12 09:57:45;;;;;;;6.63;1.30;;;22.60;1.00;;;;;;5100266;28;20433;-58
2022/05/12 10:00:34;;;;;;;2.10;1.07;;;22.60;1.00;;;;;;5091678;28;20779;-59
2022/05/12 10:09:13;;;;;;;3.40;1.43;;;22.20;1.00;;;;;;5110752;28;20469;-58
2022/05/12 10:12:02;;;;;;;1.83;1.20;;;22.30;1.00;;;;;;5096363;28;20436;-57
2022/05/12 10:15:07;;;;;;;1.30;1.10;;;22.50;1.00;;;;;;5111544;28;20428;-59
2022/05/12 10:17:46;;;;;;;3.03;1.30;;;22.20;1.00;;;;;;5058566;28;20778;-58
2022/05/12 10:20:18;;;;;;;1.80;1.60;;;22.20;1.00;;;;;;5097949;28;20431;-58
2022/05/12 10:23:07;;;;;;;4.87;1.63;;;22.50;1.00;;;;;;5111317;28;20906;-58
2022/05/12 10:25:58;;;;;;;2.43;1.60;;;22.80;1.00;;;;;;5111188;28;20443;-59
2022/05/12 10:28:28;;;;;;;4.03;1.50;;;23.20;1.00;;;;;;5090773;28;20528;-58
2022/05/12 10:30:59;;;;;;;1.63;1.07;;;22.90;1.00;;;;;;5091185;28;20521;-58
2022/05/12 10:33:33;;;;;;;1.93;1.10;;;22.80;1.00;;;;;;5110918;28;20481;-60
2022/05/12 10:36:29;;;;;;;1.57;1.30;;;22.80;1.00;;;;;;5110652;28;20743;-59
2022/05/12 10:39:13;;;;;;;2.43;1.47;;;22.40;1.00;;;;;;5111223;28;20473;-58
2022/05/12 10:42:12;;;;;;;2.10;1.10;;;22.40;1.00;;;;;;5092781;28;20432;-58
2022/05/12 10:45:04;;;;;;;2.30;1.70;;;22.10;1.00;;;;;;5093486;28;20499;-59
2022/05/12 10:47:51;;;;;;;2.17;1.23;;;22.10;1.00;;;;;;5110034;28;20972;-59
2022/05/12 10:50:23;;;;;;;2.50;1.70;;;22.40;1.00;;;;;;5110786;28;21082;-59
2022/05/12 10:52:54;;;;;;;2.03;1.23;;;22.40;1.00;;;;;;5109639;28;20440;-59
2022/05/12 10:55:22;;;;;;;2.40;1.20;;;22.30;1.00;;;;;;5103520;28;20466;-58
2022/05/12 10:57:59;;;;;;;2.10;1.13;;;22.50;1.00;;;;;;5090430;28;20453;-58
2022/05/12 11:00:48;;;;;;;5.83;2.00;;;22.60;1.00;;;;;;5091577;28;20452;-58
2022/05/12 11:03:23;;;;;;;1.93;1.60;;;22.90;1.00;;;;;;5109084;28;20943;-56
2022/05/12 11:05:55;;;;;;;3.00;1.50;;;22.90;1.00;;;;;;5090651;28;20470;-58
2022/05/12 11:08:34;;;;;;;1.97;1.47;;;22.90;1.00;;;;;;5092064;28;20460;-57
2022/05/12 11:11:17;;;;;;;6.17;1.63;;;22.80;1.00;;;;;;5107998;28;20476;-59
2022/05/12 11:13:59;;;;;;;3.60;1.40;;;23.10;1.00;;;;;;5100494;28;21251;-59
2022/05/12 11:16:35;;;;;;;6.70;1.40;;;23.20;1.00;;;;;;5102890;28;20443;-58
2022/05/12 11:19:20;;;;;;;3.33;1.63;;;22.80;1.00;;;;;;5109987;28;20435;-58
2022/05/12 11:21:57;;;;;;;3.00;1.30;;;22.80;1.00;;;;;;5109185;28;20451;-67
2022/05/12 11:24:54;;;;;;;1.37;1.13;;;22.90;1.00;;;;;;5096878;28;20483;-56
2022/05/12 11:27:29;;;;;;;6.47;1.53;;;22.70;1.00;;;;;;5107066;28;20447;-56
2022/05/12 11:30:07;;;;;;;2.50;1.30;;;22.80;1.00;;;;;;5089830;28;20471;-58
2022/05/12 11:32:38;;;;;;;2.17;1.33;;;23.20;1.00;;;;;;5104020;28;20858;-57
2022/05/12 11:35:20;;;;;;;1.70;1.20;;;23.40;1.00;;;;;;5106052;28;20451;-58
2022/05/12 11:38:06;;;;;;;1.57;1.40;;;23.50;1.00;;;;;;5076256;28;20444;-57
2022/05/12 11:40:40;;;;;;;3.73;1.57;;;23.40;1.00;;;;;;5109212;28;20440;-57
2022/05/12 11:46:14;;;;;;;4.33;1.70;;;23.00;1.00;;;;;;5102267;28;20888;-56
2022/05/12 11:48:57;;;;;;;2.27;1.50;;;22.90;1.00;;;;;;5090532;28;20976;-56
2022/05/12 11:51:35;;;;;;;3.60;1.53;;;22.80;1.00;;;;;;5090013;28;20444;-56
2022/05/12 11:54:19;;;;;;;4.70;1.90;;;22.70;1.00;;;;;;5108183;28;20555;-57
2022/05/12 11:56:49;;;;;;;1.83;1.40;;;22.80;1.00;;;;;;5105791;28;20512;-56
2022/05/12 11:59:40;;;;;;;4.80;1.60;;;22.80;1.00;;;;;;5089632;28;20437;-58
2022/05/12 12:02:29;;;;;;;2.83;1.47;;;22.90;1.00;;;;;;5097820;28;20952;-56
2022/05/12 12:04:57;;;;;;;3.20;1.40;;;22.80;1.00;;;;;;5108590;28;20476;-57
2022/05/12 12:07:32;;;;;;;5.50;1.37;;;23.00;1.00;;;;;;5094231;28;20421;-57
2022/05/12 12:10:25;;;;;;;1.93;1.33;;;23.20;1.00;;;;;;5112099;28;20547;-57
2022/05/12 12:13:21;;;;;;;2.30;1.70;;;23.40;1.00;;;;;;5095306;28;20437;-57
2022/05/12 12:15:58;;;;;;;4.10;1.50;;;23.70;1.00;;;;;;5099062;28;20436;-57
2022/05/12 12:18:28;;;;;;;3.40;1.23;;;23.40;1.00;;;;;;5113389;28;20459;-57
2022/05/12 12:21:00;;;;;;;6.47;3.20;;;23.30;1.00;;;;;;5114187;28;20515;-57
2022/05/12 12:23:32;;;;;;;1.57;1.33;;;23.50;1.00;;;;;;5104656;28;20976;-57
2022/05/12 12:26:37;;;;;;;4.87;1.57;;;23.50;1.00;;;;;;5096607;28;20950;-56
2022/05/12 12:29:08;;;;;;;3.07;1.43;;;23.20;1.00;;;;;;5071154;28;20502;-57
2022/05/12 12:31:47;;;;;;;1.40;1.17;;;23.40;1.00;;;;;;5113236;28;20427;-58
2022/05/12 12:34:31;;;;;;;1.90;1.00;;;23.40;1.00;;;;;;5094093;28;20832;-58
2022/05/12 12:37:00;;;;;;;3.43;1.30;;;23.30;1.00;;;;;;5113112;28;20500;-56
2022/05/12 12:39:37;;;;;;;2.33;1.00;;;23.10;1.00;;;;;;5108346;28;20463;-56
2022/05/12 12:42:15;;;;;;;2.60;1.40;;;23.00;1.00;;;;;;5101444;28;20445;-57
2022/05/12 12:44:45;;;;;;;2.20;1.53;;;22.90;1.00;;;;;;5093998;28;20494;-57
2022/05/12 12:47:35;;;;;;;2.57;1.30;;;22.90;1.00;;;;;;5100116;28;20439;-57
2022/05/12 12:50:14;;;;;;;2.37;1.20;;;23.30;1.00;;;;;;5109033;28;20478;-58
2022/05/12 12:52:43;;;;;;;6.77;1.40;;;23.10;1.00;;;;;;5102023;28;20956;-58
2022/05/12 12:58:06;;;;;;;1.47;1.37;;;23.10;1.00;;;;;;5093177;28;20555;-57
2022/05/12 13:00:36;;;;;;;2.43;1.30;;;23.40;1.00;;;;;;5093299;28;20877;-57
2022/05/12 13:03:03;;;;;;;5.23;1.43;;;23.60;1.00;;;;;;5097302;28;21776;-58
2022/05/12 13:05:31;;;;;;;2.67;1.17;;;23.70;1.00;;;;;;5100000;28;20791;-56
2022/05/12 13:08:06;;;;;;;2.50;1.40;;;23.90;1.00;;;;;;5104383;28;20444;-56
2022/05/12 13:10:41;;;;;;;3.77;1.37;;;23.70;1.00;;;;;;5109025;28;20868;-57
2022/05/12 13:13:07;;;;;;;4.60;1.40;;;23.50;1.00;;;;;;5112143;28;20431;-57
2022/05/12 13:15:39;;;;;;;1.80;1.27;;;23.70;1.00;;;;;;5096959;28;20948;-57
2022/05/12 13:18:07;;;;;;;2.30;1.37;;;24.10;1.00;;;;;;5094260;28;20211;-57
2022/05/12 13:20:39;;;;;;;2.50;1.70;;;24.10;1.00;;;;;;5100412;28;20444;-57
2022/05/12 13:23:09;;;;;;;2.00;1.20;;;23.60;1.00;;;;;;5111750;28;20431;-58
2022/05/12 13:25:43;;;;;;;2.67;1.23;;;23.30;1.00;;;;;;5097081;28;20444;-58
2022/05/12 13:28:19;;;;;;;1.40;1.30;;;23.00;1.00;;;;;;5109494;28;20468;-57
2022/05/12 13:30:47;;;;;;;1.97;1.20;;;23.00;1.00;;;;;;5111440;28;20467;-56
2022/05/12 13:33:23;;;;;;;9.93;1.60;;;23.10;1.00;;;;;;5101549;28;20807;-57
2022/05/12 13:36:02;;;;;;;2.00;1.40;;;23.00;1.00;;;;;;5109181;28;20544;-57
2022/05/12 13:38:31;;;;;;;2.47;1.80;;;23.10;1.00;;;;;;5096178;28;20464;-57
2022/05/12 13:41:31;;;;;;;1.97;1.47;;;23.30;1.00;;;;;;5109326;28;20463;-57
2022/05/12 13:44:18;;;;;;;4.40;1.70;;;23.40;1.00;;;;;;5102844;28;20504;-58
2022/05/12 13:46:51;;;;;;;2.80;1.30;;;23.70;1.00;;;;;;5094803;28;20448;-57